createdAt,value
2023-01-01T00:02:00.485Z,12.60
2023-01-01T00:04:29.956Z,11.80
2023-01-01T00:06:59.528Z,11.50
2023-01-01T00:09:45.429Z,12.45
2023-01-01T00:12:13.716Z,12.57
2023-01-01T00:14:44.365Z,14.30
2023-01-01T00:19:40.845Z,20.27
2023-01-01T00:22:52.156Z,16.60
2023-01-01T00:24:58.753Z,18.15
2023-01-01T00:27:27.009Z,22.20
2023-01-01T00:29:55.280Z,26.13
2023-01-01T00:32:23.775Z,30.20
2023-01-01T00:34:52.805Z,25.40
2023-01-01T00:37:22.407Z,19.55
2023-01-01T00:39:50.674Z,19.08
2023-01-01T00:42:18.896Z,20.48
2023-01-01T00:44:47.171Z,19.95
2023-01-01T00:47:15.419Z,20.33
2023-01-01T00:49:43.684Z,27.02
2023-01-01T00:52:12.000Z,37.38
2023-01-01T00:54:41.746Z,33.95
2023-01-01T00:57:10.113Z,39.80
2023-01-01T00:59:38.571Z,33.53
2023-01-01T01:02:07.025Z,44.08
2023-01-01T01:04:35.608Z,47.70
2023-01-01T01:07:04.127Z,49.45
2023-01-01T01:09:32.428Z,60.72
2023-01-01T01:12:17.504Z,78.45
2023-01-01T01:14:47.978Z,96.28
2023-01-01T01:17:16.324Z,94.72
2023-01-01T01:19:44.637Z,54.53
2023-01-01T01:22:12.977Z,73.80
2023-01-01T01:24:41.247Z,82.25
2023-01-01T01:27:10.842Z,93.20
2023-01-01T01:29:39.601Z,101.32
2023-01-01T01:32:07.863Z,97.75
2023-01-01T01:34:36.200Z,96.40
2023-01-01T01:37:04.860Z,73.30
2023-01-01T01:39:33.268Z,30.67
2023-01-01T01:42:03.672Z,72.38
2023-01-01T01:45:00.573Z,77.85
2023-01-01T01:47:32.628Z,101.53
2023-01-01T01:50:05.741Z,111.50
2023-01-01T01:52:36.123Z,116.97
2023-01-01T01:55:05.978Z,115.35
2023-01-01T01:57:34.402Z,122.05
2023-01-01T02:00:11.000Z,118.75
2023-01-01T02:02:44.224Z,124.60
2023-01-01T02:05:12.894Z,131.75
2023-01-01T02:07:41.432Z,129.93
2023-01-01T02:10:10.425Z,137.32
2023-01-01T02:12:38.756Z,133.55
2023-01-01T02:15:10.687Z,134.13
2023-01-01T02:17:43.838Z,138.25
2023-01-01T02:20:26.662Z,140.27
2023-01-01T02:23:17.783Z,143.63
2023-01-01T02:25:58.943Z,140.85
2023-01-01T02:28:49.631Z,149.80
2023-01-01T02:33:52.790Z,147.73
2023-01-01T02:36:21.725Z,154.98
2023-01-01T02:38:52.829Z,163.52
2023-01-01T02:41:25.556Z,172.75
2023-01-01T02:48:52.752Z,176.85
2023-01-01T02:51:27.368Z,177.70
2023-01-01T02:54:02.771Z,169.77
2023-01-01T02:56:37.416Z,174.25
2023-01-01T02:59:34.463Z,188.80
2023-01-01T03:02:08.178Z,179.60
2023-01-01T03:04:43.565Z,180.02
2023-01-01T03:07:15.114Z,192.40
2023-01-01T03:09:47.364Z,189.82
2023-01-01T03:12:25.250Z,182.38
2023-01-01T03:15:00.013Z,179.63
2023-01-01T03:17:32.868Z,172.60
2023-01-01T03:20:03.799Z,182.75
2023-01-01T03:22:34.810Z,173.05
2023-01-01T03:25:08.624Z,165.98
2023-01-01T03:27:41.042Z,156.82
2023-01-01T03:30:13.131Z,174.50
2023-01-01T03:33:04.459Z,171.55
2023-01-01T03:35:36.623Z,168.50
2023-01-01T03:38:08.246Z,167.98
2023-01-01T03:40:38.591Z,173.80
2023-01-01T03:43:10.723Z,178.38
2023-01-01T03:45:42.712Z,175.10
2023-01-01T03:48:11.660Z,180.05
2023-01-01T03:50:49.371Z,170.93
2023-01-01T03:53:23.141Z,181.32
2023-01-01T03:55:55.067Z,180.38
2023-01-01T03:58:27.326Z,177.93
2023-01-01T04:01:02.314Z,186.15
2023-01-01T04:03:32.302Z,181.43
2023-01-01T04:06:02.746Z,180.02
2023-01-01T04:08:33.346Z,183.63
2023-01-01T04:11:25.055Z,180.23
2023-01-01T04:13:53.302Z,175.88
2023-01-01T04:16:23.227Z,171.30
2023-01-01T04:18:51.536Z,174.90
2023-01-01T04:21:19.784Z,172.48
2023-01-01T04:23:48.038Z,162.93
2023-01-01T04:26:16.705Z,164.68
2023-01-01T04:28:44.946Z,161.70
2023-01-01T04:31:13.221Z,158.55
2023-01-01T04:33:42.895Z,161.63
2023-01-01T04:36:11.643Z,166.70
2023-01-01T04:38:40.043Z,140.73
2023-01-01T04:41:08.278Z,146.75
2023-01-01T04:43:36.576Z,149.18
2023-01-01T04:46:05.519Z,130.93
2023-01-01T04:48:36.235Z,89.03
2023-01-01T04:53:36.112Z,122.57
2023-01-01T04:56:05.841Z,124.03
2023-01-01T04:58:34.759Z,97.87
2023-01-01T05:01:03.508Z,80.53
2023-01-01T05:03:32.486Z,81.60
2023-01-01T05:06:01.790Z,115.72
2023-01-01T05:08:32.195Z,116.88
2023-01-01T05:11:04.096Z,87.60
2023-01-01T05:13:32.579Z,121.07
2023-01-01T05:16:03.657Z,107.68
2023-01-01T05:18:32.097Z,100.85
2023-01-01T05:21:01.561Z,94.35
2023-01-01T05:23:31.621Z,102.05
2023-01-01T05:26:00.407Z,89.97
2023-01-01T05:28:28.660Z,55.33
2023-01-01T05:30:56.875Z,50.67
2023-01-01T05:33:25.177Z,68.57
2023-01-01T05:35:56.227Z,44.95
2023-01-01T05:38:24.458Z,40.03
2023-01-01T05:40:54.061Z,52.22
2023-01-01T05:43:22.515Z,56.53
2023-01-01T05:45:50.795Z,31.17
2023-01-01T05:48:19.051Z,22.92
2023-01-01T05:50:47.282Z,17.25
2023-01-01T05:53:15.674Z,12.95
2023-01-01T05:55:43.927Z,11.00
2023-01-01T05:58:13.516Z,11.32
2023-01-01T06:00:41.879Z,9.80
2023-01-01T06:03:10.218Z,9.10
2023-01-01T06:05:38.538Z,8.38
2023-01-01T06:08:07.136Z,8.50
2023-01-01T06:10:35.464Z,7.55
2023-01-01T06:13:09.544Z,7.40
2023-01-01T06:15:42.721Z,7.60
2023-01-01T06:18:11.047Z,7.18
2023-01-01T06:20:39.305Z,7.03
2023-01-01T06:23:07.640Z,10.48
2023-01-01T06:25:36.054Z,17.23
2023-01-01T06:28:04.413Z,19.88
2023-01-01T06:30:34.445Z,23.48
2023-01-01T06:33:04.319Z,12.75
2023-01-01T06:35:32.635Z,8.63
2023-01-01T06:38:01.336Z,10.40
2023-01-01T06:40:29.702Z,6.45
2023-01-01T06:42:57.968Z,5.57
2023-01-01T06:45:26.353Z,5.20
2023-01-01T06:47:54.676Z,5.20
2023-01-01T06:50:24.401Z,6.20
2023-01-01T06:52:52.680Z,5.87
2023-01-01T06:55:21.035Z,6.10
2023-01-01T06:57:52.903Z,5.13
2023-01-01T07:00:21.616Z,5.35
2023-01-01T07:02:50.087Z,4.68
2023-01-01T07:05:18.884Z,4.53
2023-01-01T07:07:48.553Z,4.80
2023-01-01T07:10:16.881Z,4.95
2023-01-01T07:12:45.305Z,4.32
2023-01-01T07:15:13.689Z,4.30
2023-01-01T07:17:42.033Z,4.00
2023-01-01T07:20:10.970Z,4.22
2023-01-01T07:22:40.460Z,3.80
2023-01-01T07:25:12.438Z,4.00
2023-01-01T07:27:40.793Z,3.97
2023-01-01T07:30:10.942Z,3.97
2023-01-01T07:32:39.303Z,3.33
2023-01-01T07:35:08.568Z,3.75
2023-01-01T07:37:37.156Z,3.58
2023-01-01T07:40:06.301Z,3.78
2023-01-01T07:42:36.015Z,3.83
2023-01-01T07:45:04.327Z,3.93
2023-01-01T07:47:32.978Z,3.83
2023-01-01T07:50:01.382Z,3.65
2023-01-01T07:52:29.754Z,3.80
2023-01-01T07:54:58.105Z,3.53
2023-01-01T07:57:26.502Z,3.60
2023-01-01T07:59:56.241Z,3.80
2023-01-01T08:02:24.690Z,3.50
2023-01-01T08:04:53.161Z,3.60
2023-01-01T08:07:21.447Z,3.78
2023-01-01T08:09:49.765Z,3.67
2023-01-01T08:12:18.087Z,3.90
2023-01-01T08:14:46.485Z,3.90
2023-01-01T08:17:16.265Z,3.65
2023-01-01T08:19:44.803Z,3.60
2023-01-01T08:22:13.074Z,4.05
2023-01-01T08:24:41.429Z,3.65
2023-01-01T08:27:11.902Z,3.08
2023-01-01T08:29:40.305Z,3.80
2023-01-01T08:32:08.633Z,3.40
2023-01-01T08:34:38.303Z,3.60
2023-01-01T08:37:07.104Z,3.80
2023-01-01T08:39:35.318Z,3.45
2023-01-01T08:42:08.510Z,3.53
2023-01-01T08:44:40.215Z,3.40
2023-01-01T08:47:09.973Z,3.42
2023-01-01T08:49:39.597Z,3.43
2023-01-01T08:52:07.850Z,3.33
2023-01-01T08:54:36.066Z,3.30
2023-01-01T08:57:04.276Z,3.40
2023-01-01T08:59:32.540Z,3.10
2023-01-01T09:02:00.892Z,3.60
2023-01-01T09:04:29.274Z,3.45
2023-01-01T09:06:58.816Z,2.72
2023-01-01T09:09:31.281Z,3.13
2023-01-01T09:12:04.215Z,3.50
2023-01-01T09:14:33.277Z,3.05
2023-01-01T09:17:01.723Z,3.10
2023-01-01T09:19:30.024Z,3.10
2023-01-01T09:21:59.657Z,3.22
2023-01-01T09:24:28.504Z,3.13
2023-01-01T09:26:56.772Z,3.45
2023-01-01T09:29:25.051Z,3.50
2023-01-01T09:31:53.317Z,3.53
2023-01-01T09:34:21.641Z,3.50
2023-01-01T09:36:49.993Z,3.47
2023-01-01T09:39:19.623Z,3.03
2023-01-01T09:42:02.486Z,3.10
2023-01-01T09:44:51.109Z,2.88
2023-01-01T09:47:24.481Z,2.92
2023-01-01T09:49:54.015Z,2.90
2023-01-01T09:52:22.595Z,2.95
2023-01-01T09:54:57.149Z,2.92
2023-01-01T09:57:28.239Z,2.75
2023-01-01T09:59:56.775Z,2.65
2023-01-01T10:02:37.184Z,3.10
2023-01-01T10:05:27.586Z,3.00
2023-01-01T10:08:01.153Z,2.95
2023-01-01T10:10:37.411Z,2.40
2023-01-01T10:13:14.606Z,2.80
2023-01-01T10:15:50.705Z,2.90
2023-01-01T10:18:22.690Z,2.78
2023-01-01T10:20:58.133Z,2.22
2023-01-01T10:23:28.647Z,2.20
2023-01-01T10:25:59.360Z,2.30
2023-01-01T10:28:33.222Z,2.10
2023-01-01T10:31:15.565Z,2.13
2023-01-01T10:33:44.435Z,2.10
2023-01-01T10:36:15.391Z,2.05
2023-01-01T10:38:43.843Z,2.05
2023-01-01T10:41:19.547Z,1.80
2023-01-01T10:43:49.684Z,2.00
2023-01-01T10:46:26.046Z,2.10
2023-01-01T10:49:10.977Z,1.90
2023-01-01T10:51:44.435Z,1.83
2023-01-01T10:54:31.527Z,2.00
2023-01-01T10:57:02.130Z,1.85
2023-01-01T10:59:35.792Z,2.30
2023-01-01T11:02:19.884Z,2.00
2023-01-01T11:04:48.861Z,2.08
2023-01-01T11:07:26.705Z,2.20
2023-01-01T11:10:03.498Z,2.00
2023-01-01T11:13:04.121Z,2.53
2023-01-01T11:15:31.427Z,2.22
2023-01-01T11:18:05.457Z,2.40
2023-01-01T11:20:34.522Z,2.30
2023-01-01T11:23:19.498Z,2.00
2023-01-01T11:26:07.008Z,2.28
2023-01-01T11:28:36.886Z,1.98
2023-01-01T11:31:13.865Z,2.10
2023-01-01T11:33:46.111Z,1.92
2023-01-01T11:36:22.330Z,1.60
2023-01-01T11:38:51.835Z,1.85
2023-01-01T11:41:20.208Z,1.52
2023-01-01T11:43:50.192Z,1.73
2023-01-01T11:46:24.754Z,1.83
2023-01-01T11:48:54.601Z,1.73
2023-01-01T11:51:31.816Z,1.48
2023-01-01T11:54:11.897Z,1.80
2023-01-01T11:56:40.710Z,1.50
2023-01-01T11:59:14.920Z,1.55
2023-01-01T12:01:47.085Z,1.35
2023-01-01T12:04:20.445Z,1.60
2023-01-01T12:06:52.832Z,1.40
2023-01-01T12:09:25.492Z,1.55
2023-01-01T12:11:58.024Z,1.33
2023-01-01T12:14:33.010Z,1.67
2023-01-01T12:17:03.643Z,1.30
2023-01-01T12:22:01.382Z,1.80
2023-01-01T12:24:34.517Z,1.48
2023-01-01T12:27:18.804Z,1.63
2023-01-01T12:30:07.432Z,1.60
2023-01-01T12:32:48.701Z,1.77
2023-01-01T12:35:24.205Z,1.63
2023-01-01T12:37:59.460Z,1.50
2023-01-01T12:40:37.885Z,1.50
2023-01-01T12:43:13.015Z,1.63
2023-01-01T12:46:13.863Z,1.67
2023-01-01T12:49:07.048Z,1.70
2023-01-01T12:51:42.815Z,1.58
2023-01-01T12:54:31.088Z,1.40
2023-01-01T12:57:02.225Z,1.40
2023-01-01T12:59:33.587Z,1.65
2023-01-01T13:02:04.872Z,1.73
2023-01-01T13:04:33.261Z,1.48
2023-01-01T13:07:05.706Z,1.50
2023-01-01T13:09:37.143Z,1.60
2023-01-01T13:12:07.524Z,1.58
2023-01-01T13:14:39.781Z,1.48
2023-01-01T13:17:19.360Z,1.50
2023-01-01T13:19:47.814Z,1.50
2023-01-01T13:22:39.670Z,1.70
2023-01-01T13:25:20.952Z,1.63
2023-01-01T13:28:06.338Z,1.25
2023-01-01T13:31:01.564Z,1.50
2023-01-01T13:33:33.213Z,1.70
2023-01-01T13:36:32.387Z,1.52
2023-01-01T13:39:01.401Z,1.65
2023-01-01T13:41:36.860Z,1.70
2023-01-01T13:44:20.150Z,1.50
2023-01-01T13:47:04.858Z,1.50
2023-01-01T13:49:45.494Z,1.60
2023-01-01T13:52:27.169Z,1.40
2023-01-01T13:55:35.349Z,1.58
2023-01-01T13:58:34.021Z,1.65
2023-01-01T14:01:25.001Z,1.80
2023-01-01T14:03:55.301Z,1.63
2023-01-01T14:06:30.146Z,1.40
2023-01-01T14:09:07.293Z,1.20
2023-01-01T14:11:35.570Z,1.48
2023-01-01T14:14:03.821Z,1.60
2023-01-01T14:16:32.141Z,1.75
2023-01-01T14:19:01.507Z,1.70
2023-01-01T14:21:33.744Z,1.40
2023-01-01T14:24:03.921Z,1.58
2023-01-01T14:26:33.459Z,1.73
2023-01-01T14:29:04.417Z,1.53
2023-01-01T14:31:35.833Z,1.42
2023-01-01T14:34:15.008Z,1.70
2023-01-01T14:36:52.264Z,1.52
2023-01-01T14:39:28.026Z,1.88
2023-01-01T14:42:00.001Z,1.52
2023-01-01T14:44:31.546Z,1.38
2023-01-01T14:47:00.020Z,1.60
2023-01-01T14:49:31.122Z,1.67
2023-01-01T14:52:03.224Z,1.83
2023-01-01T14:54:33.433Z,1.90
2023-01-01T14:57:02.002Z,2.00
2023-01-01T14:59:32.239Z,2.22
2023-01-01T15:02:02.105Z,2.55
2023-01-01T15:04:31.217Z,2.10
2023-01-01T15:07:01.882Z,2.35
2023-01-01T15:09:32.171Z,2.63
2023-01-01T15:12:01.452Z,2.90
2023-01-01T15:14:31.777Z,3.80
2023-01-01T15:17:04.296Z,3.10
2023-01-01T15:19:32.875Z,3.47
2023-01-01T15:22:03.304Z,4.60
2023-01-01T15:24:33.418Z,3.65
2023-01-01T15:27:02.677Z,3.88
2023-01-01T15:29:34.193Z,3.40
2023-01-01T15:32:03.766Z,3.25
2023-01-01T15:34:33.879Z,2.93
2023-01-01T15:37:13.552Z,3.30
2023-01-01T15:39:49.073Z,2.50
2023-01-01T15:42:33.385Z,2.75
2023-01-01T15:45:24.479Z,8.45
2023-01-01T15:47:54.189Z,23.48
2023-01-01T15:50:24.419Z,14.57
2023-01-01T15:52:56.212Z,6.82
2023-01-01T15:55:27.188Z,4.40
2023-01-01T15:57:56.039Z,3.97
2023-01-01T16:00:25.971Z,3.53
2023-01-01T16:02:55.559Z,3.42
2023-01-01T16:05:25.224Z,3.43
2023-01-01T16:08:01.004Z,3.15
2023-01-01T16:10:29.470Z,3.47
2023-01-01T16:12:57.917Z,3.53
2023-01-01T16:15:26.613Z,3.25
2023-01-01T16:17:55.225Z,3.10
2023-01-01T16:20:23.662Z,3.38
2023-01-01T16:22:51.890Z,3.85
2023-01-01T16:25:23.545Z,3.33
2023-01-01T16:27:51.776Z,3.75
2023-01-01T16:30:20.080Z,4.07
2023-01-01T16:32:49.255Z,4.13
2023-01-01T16:35:17.713Z,4.10
2023-01-01T16:37:46.057Z,4.05
2023-01-01T16:40:15.391Z,4.90
2023-01-01T16:45:31.092Z,4.75
2023-01-01T16:47:59.689Z,4.90
2023-01-01T16:50:28.218Z,4.55
2023-01-01T16:52:56.536Z,4.82
2023-01-01T16:55:24.788Z,4.85
2023-01-01T16:58:13.674Z,4.97
2023-01-01T17:00:42.733Z,5.25
2023-01-01T17:03:11.073Z,5.72
2023-01-01T17:05:44.077Z,5.95
2023-01-01T17:08:13.335Z,5.20
2023-01-01T17:10:41.608Z,6.05
2023-01-01T17:13:11.449Z,7.40
2023-01-01T17:15:39.805Z,6.30
2023-01-01T17:18:08.070Z,5.18
2023-01-01T17:20:36.336Z,4.93
2023-01-01T17:23:04.619Z,5.20
2023-01-01T17:25:33.663Z,4.72
2023-01-01T17:28:02.047Z,4.90
2023-01-01T17:30:31.628Z,6.15
2023-01-01T17:32:59.939Z,12.18
2023-01-01T17:35:33.040Z,5.80
2023-01-01T17:38:01.720Z,6.22
2023-01-01T17:40:35.114Z,6.30
2023-01-01T17:43:05.242Z,6.25
2023-01-01T17:45:37.474Z,5.25
2023-01-01T17:48:05.980Z,5.78
2023-01-01T17:50:34.205Z,4.80
2023-01-01T17:53:02.524Z,5.20
2023-01-01T17:55:30.876Z,5.65
2023-01-01T17:57:59.119Z,6.20
2023-01-01T18:00:27.302Z,5.97
2023-01-01T18:02:57.066Z,5.55
2023-01-01T18:05:25.343Z,5.18
2023-01-01T18:07:53.551Z,5.80
2023-01-01T18:10:21.820Z,5.18
2023-01-01T18:12:50.070Z,5.18
2023-01-01T18:15:18.346Z,5.25
2023-01-01T18:17:46.546Z,5.70
2023-01-01T18:20:17.949Z,5.28
2023-01-01T18:22:47.868Z,5.22
2023-01-01T18:25:16.365Z,5.25
2023-01-01T18:27:44.594Z,5.22
2023-01-01T18:30:13.465Z,5.35
2023-01-01T18:32:41.709Z,6.70
2023-01-01T18:35:10.094Z,6.60
2023-01-01T18:37:39.732Z,6.75
2023-01-01T18:40:12.954Z,6.38
2023-01-01T18:42:47.067Z,6.88
2023-01-01T18:45:19.076Z,7.30
2023-01-01T18:47:47.519Z,7.22
2023-01-01T18:50:19.069Z,5.80
2023-01-01T18:52:48.746Z,5.82
2023-01-01T18:55:19.021Z,5.83
2023-01-01T18:57:50.862Z,5.50
2023-01-01T19:00:22.417Z,5.70
2023-01-01T19:02:57.115Z,5.38
2023-01-01T19:05:27.206Z,6.10
2023-01-01T19:08:04.053Z,5.50
2023-01-01T19:10:38.586Z,5.88
2023-01-01T19:13:16.064Z,6.10
2023-01-01T19:15:49.399Z,6.45
2023-01-01T19:18:19.825Z,6.40
2023-01-01T19:20:51.178Z,6.75
2023-01-01T19:23:23.882Z,7.15
2023-01-01T19:25:52.624Z,7.47
2023-01-01T19:28:31.381Z,8.23
2023-01-01T19:30:59.882Z,7.88
2023-01-01T19:33:29.131Z,9.65
2023-01-01T19:35:57.708Z,7.85
2023-01-01T19:38:27.284Z,7.07
2023-01-01T19:40:55.508Z,7.25
2023-01-01T19:43:23.888Z,7.45
2023-01-01T19:45:52.168Z,7.13
2023-01-01T19:48:20.453Z,6.43
2023-01-01T19:50:48.672Z,6.63
2023-01-01T19:53:16.934Z,7.13
2023-01-01T19:55:47.031Z,6.75
2023-01-01T19:58:15.634Z,6.50
2023-01-01T20:00:44.079Z,6.90
2023-01-01T20:03:52.127Z,7.53
2023-01-01T20:06:00.832Z,5.70
2023-01-01T20:08:29.556Z,6.43
2023-01-01T20:10:59.302Z,6.45
2023-01-01T20:13:27.789Z,6.40
2023-01-01T20:15:56.376Z,6.43
2023-01-01T20:18:24.836Z,7.35
2023-01-01T20:21:07.020Z,6.78
2023-01-01T20:23:35.396Z,7.38
2023-01-01T20:26:05.254Z,7.25
2023-01-01T20:28:51.184Z,7.00
2023-01-01T20:31:19.601Z,6.90
2023-01-01T20:33:47.978Z,6.03
2023-01-01T20:36:33.612Z,6.35
2023-01-01T20:39:01.921Z,6.68
2023-01-01T20:41:31.580Z,7.18
2023-01-01T20:44:01.636Z,6.88
2023-01-01T20:46:30.749Z,7.68
2023-01-01T20:48:59.489Z,7.22
2023-01-01T20:51:27.885Z,7.35
2023-01-01T20:53:56.311Z,7.20
2023-01-01T20:56:24.781Z,7.57
2023-01-01T20:59:00.136Z,6.88
2023-01-01T21:01:30.482Z,6.85
2023-01-01T21:03:58.920Z,7.03
2023-01-01T21:06:27.283Z,6.45
2023-01-01T21:08:55.763Z,7.30
2023-01-01T21:11:24.175Z,6.95
2023-01-01T21:13:53.852Z,7.65
2023-01-01T21:16:26.147Z,7.53
2023-01-01T21:18:54.425Z,7.40
2023-01-01T21:21:24.296Z,7.50
2023-01-01T21:23:54.408Z,7.88
2023-01-01T21:26:27.344Z,7.82
2023-01-01T21:29:00.239Z,7.35
2023-01-01T21:31:37.823Z,7.55
2023-01-01T21:34:17.728Z,7.78
2023-01-01T21:36:46.012Z,7.67
2023-01-01T21:39:15.457Z,7.60
2023-01-01T21:41:43.881Z,7.68
2023-01-01T21:44:16.032Z,8.18
2023-01-01T21:46:55.436Z,8.00
2023-01-01T21:49:33.794Z,7.97
2023-01-01T21:52:03.077Z,8.48
2023-01-01T21:54:34.422Z,8.18
2023-01-01T21:57:13.549Z,7.53
2023-01-01T21:59:44.085Z,7.25
2023-01-01T22:02:40.215Z,6.85
2023-01-01T22:05:31.072Z,6.60
2023-01-01T22:08:00.089Z,6.80
2023-01-01T22:10:33.723Z,6.97
2023-01-01T22:13:02.518Z,7.38
2023-01-01T22:15:38.886Z,7.47
2023-01-01T22:18:18.996Z,8.63
2023-01-01T22:20:48.408Z,7.20
2023-01-01T22:23:33.745Z,8.20
2023-01-01T22:26:05.058Z,8.20
2023-01-01T22:28:39.727Z,8.80
2023-01-01T22:31:11.882Z,9.32
2023-01-01T22:33:43.387Z,9.07
2023-01-01T22:36:13.947Z,8.65
2023-01-01T22:38:42.641Z,8.38
2023-01-01T22:41:11.476Z,10.75
2023-01-01T22:43:42.117Z,9.25
2023-01-01T22:48:43.962Z,9.98
2023-01-01T22:51:17.411Z,8.40
2023-01-01T22:53:45.798Z,8.15
2023-01-01T22:56:14.047Z,8.70
2023-01-01T22:58:42.750Z,8.00
2023-01-01T23:01:11.085Z,8.23
2023-01-01T23:03:40.710Z,9.52
2023-01-01T23:06:09.238Z,7.97
2023-01-01T23:08:37.609Z,7.18
2023-01-01T23:11:05.898Z,6.32
2023-01-01T23:13:54.037Z,5.95
2023-01-01T23:16:22.311Z,7.25
2023-01-01T23:18:51.942Z,7.80
2023-01-01T23:21:26.857Z,8.98
2023-01-01T23:23:56.291Z,8.45
2023-01-01T23:26:25.599Z,7.55
2023-01-01T23:28:54.325Z,8.45
2023-01-01T23:31:25.545Z,8.23
2023-01-01T23:33:56.204Z,8.43
2023-01-01T23:36:25.028Z,8.45
2023-01-01T23:38:53.328Z,7.70
2023-01-01T23:41:22.426Z,7.90
2023-01-01T23:43:51.098Z,7.85
2023-01-01T23:46:19.988Z,7.13
2023-01-01T23:48:49.212Z,7.30
2023-01-01T23:51:19.106Z,7.60
2023-01-01T23:53:47.482Z,8.07
2023-01-01T23:56:15.872Z,7.97
2023-01-01T23:58:44.099Z,7.22
